Terminal Aerodrome Forecast
Issued by NWS Albany, NY

Home | Current Version | Previous Version | Text Only | Print | Product List | Glossary On
Versions: 1 2 3 4 5 6 7 8 9 10 11 12 13 14 15 16 17 18
000
FTUS41 KALY 291700
TAFGFL
TAF
KGFL 291728Z 2918/3018 14004KT P6SM SCT035
     FM300000 00000KT P6SM SKC
     FM300400 00000KT 3SM BR SKC
     FM300600 00000KT 2SM BR BKN002
     FM301300 19007KT P6SM FEW050 SCT150 BKN250=

USA.gov is the U.S. government's official web portal to all federal, state and local government web resources and services.